DAL420 KCMH-KRDU
Flight info
| Callsign | DAL420 |
|---|---|
| Flight time | 1h 3m |
| Altitude | 32000 |
| Route | OCHER CFBGR KPASS ALDAN4 |
| Aircraft | B738/M-V/N |
Departure
| Time | 2026-05-07 04:01 |
|---|---|
| Airport | John Glenn Columbus International Airport (KCMH) |
Arrival
| Time | 2026-05-07 05:04 |
|---|---|
| Airport | Raleigh-Durham International Airport (KRDU) |
| Time | Latitude | Longitude | Altitude | Speed | Heading |
|---|---|---|---|---|---|
| 2026-05-07 03:50 | 39.99977 | -82.88639 | 811 ft | 0 kts | 173° |
| 2026-05-07 03:55 | 40.00000 | -82.88642 | 811 ft | 3 kts | 173° |
| 2026-05-07 03:56 | 40.00016 | -82.88644 | 811 ft | 2 kts | 180° |
| 2026-05-07 03:56 | 40.00028 | -82.88642 | 811 ft | 1 kts | 197° |
| 2026-05-07 03:56 | 40.00036 | -82.88638 | 811 ft | 1 kts | 214° |
| 2026-05-07 03:56 | 40.00043 | -82.88631 | 811 ft | 1 kts | 230° |
| 2026-05-07 03:57 | 40.00048 | -82.88622 | 811 ft | 1 kts | 245° |
| 2026-05-07 03:57 | 40.00050 | -82.88612 | 811 ft | 1 kts | 259° |
| 2026-05-07 03:57 | 40.00051 | -82.88605 | 811 ft | 0 kts | 257° |
| 2026-05-07 03:58 | 40.00062 | -82.88637 | 811 ft | 8 kts | 311° |
| 2026-05-07 03:58 | 40.00075 | -82.88639 | 811 ft | 0 kts | 39° |
| 2026-05-07 03:58 | 40.00096 | -82.88603 | 811 ft | 7 kts | 76° |
| 2026-05-07 03:59 | 40.00099 | -82.88517 | 809 ft | 12 kts | 95° |
| 2026-05-07 03:59 | 40.00091 | -82.88395 | 807 ft | 14 kts | 94° |
| 2026-05-07 03:59 | 40.00082 | -82.88258 | 805 ft | 15 kts | 95° |
| 2026-05-07 03:59 | 40.00073 | -82.88113 | 802 ft | 16 kts | 95° |
| 2026-05-07 04:00 | 40.00065 | -82.87972 | 799 ft | 6 kts | 81° |
| 2026-05-07 04:00 | 40.00115 | -82.87940 | 797 ft | 14 kts | 351° |
| 2026-05-07 04:00 | 40.00169 | -82.88063 | 799 ft | 28 kts | 274° |
| 2026-05-07 04:00 | 40.00203 | -82.88666 | 810 ft | 103 kts | 274° |
| 2026-05-07 04:01 | 40.00272 | -82.89897 | 816 ft | 166 kts | 274° |
| 2026-05-07 04:01 | 40.00343 | -82.91528 | 1236 ft | 186 kts | 272° |
| 2026-05-07 04:01 | 40.00335 | -82.93321 | 1785 ft | 210 kts | 269° |
| 2026-05-07 04:01 | 40.00213 | -82.95277 | 2308 ft | 214 kts | 267° |
| 2026-05-07 04:02 | 39.99881 | -82.97195 | 2990 ft | 219 kts | 245° |
| 2026-05-07 04:02 | 39.98999 | -82.98907 | 3704 ft | 241 kts | 227° |
| 2026-05-07 04:02 | 39.97616 | -83.00340 | 4295 ft | 266 kts | 212° |
| 2026-05-07 04:02 | 39.95871 | -83.01266 | 4816 ft | 270 kts | 195° |
| 2026-05-07 04:03 | 39.93994 | -83.01510 | 5325 ft | 272 kts | 179° |
| 2026-05-07 04:03 | 39.92125 | -83.01060 | 5835 ft | 276 kts | 163° |
| 2026-05-07 04:03 | 39.90346 | -83.00064 | 6340 ft | 280 kts | 160° |
| 2026-05-07 04:03 | 39.88508 | -82.99124 | 6841 ft | 282 kts | 161° |
| 2026-05-07 04:04 | 39.86663 | -82.98146 | 7337 ft | 286 kts | 161° |
| 2026-05-07 04:04 | 39.84819 | -82.97148 | 7831 ft | 288 kts | 161° |
| 2026-05-07 04:04 | 39.82936 | -82.96088 | 8332 ft | 290 kts | 161° |
| 2026-05-07 04:04 | 39.81089 | -82.95028 | 8819 ft | 292 kts | 161° |
| 2026-05-07 04:05 | 39.79207 | -82.93910 | 9315 ft | 296 kts | 161° |
| 2026-05-07 04:05 | 39.77310 | -82.92765 | 9656 ft | 300 kts | 161° |
| 2026-05-07 04:05 | 39.75406 | -82.91723 | 9990 ft | 295 kts | 167° |
| 2026-05-07 04:05 | 39.73446 | -82.90772 | 10340 ft | 311 kts | 167° |
| 2026-05-07 04:06 | 39.71298 | -82.89761 | 10767 ft | 339 kts | 167° |
| 2026-05-07 04:06 | 39.68966 | -82.88661 | 11204 ft | 366 kts | 167° |
| 2026-05-07 04:06 | 39.66447 | -82.87542 | 11619 ft | 390 kts | 169° |
| 2026-05-07 04:06 | 39.63764 | -82.86446 | 12022 ft | 412 kts | 169° |
| 2026-05-07 04:07 | 39.61028 | -82.85307 | 12359 ft | 411 kts | 169° |
| 2026-05-07 04:07 | 39.58340 | -82.84174 | 12690 ft | 407 kts | 169° |
| 2026-05-07 04:07 | 39.55609 | -82.83003 | 13030 ft | 410 kts | 169° |
| 2026-05-07 04:07 | 39.52874 | -82.81816 | 13371 ft | 411 kts | 169° |
| 2026-05-07 04:08 | 39.50187 | -82.80639 | 13706 ft | 417 kts | 169° |
| 2026-05-07 04:08 | 39.47422 | -82.79421 | 14044 ft | 415 kts | 169° |
| 2026-05-07 04:08 | 39.44727 | -82.78210 | 14371 ft | 414 kts | 169° |
| 2026-05-07 04:08 | 39.41970 | -82.76955 | 14712 ft | 418 kts | 169° |
| 2026-05-07 04:09 | 39.39227 | -82.75680 | 15045 ft | 420 kts | 169° |
| 2026-05-07 04:09 | 39.36452 | -82.74377 | 15380 ft | 425 kts | 169° |
| 2026-05-07 04:09 | 39.33670 | -82.73032 | 15714 ft | 423 kts | 169° |
| 2026-05-07 04:09 | 39.30919 | -82.71698 | 16045 ft | 427 kts | 169° |
| 2026-05-07 04:10 | 39.28080 | -82.70409 | 16381 ft | 426 kts | 171° |
| 2026-05-07 04:10 | 39.25252 | -82.69108 | 16714 ft | 429 kts | 171° |
| 2026-05-07 04:10 | 39.22429 | -82.67805 | 17071 ft | 427 kts | 172° |
| 2026-05-07 04:10 | 39.19581 | -82.66659 | 17439 ft | 429 kts | 174° |
| 2026-05-07 04:11 | 39.16706 | -82.65472 | 17805 ft | 433 kts | 174° |
| 2026-05-07 04:11 | 39.13856 | -82.64276 | 18168 ft | 433 kts | 174° |
| 2026-05-07 04:11 | 39.10979 | -82.63049 | 18529 ft | 436 kts | 174° |
| 2026-05-07 04:11 | 39.08114 | -82.61814 | 18892 ft | 433 kts | 174° |
| 2026-05-07 04:12 | 39.05222 | -82.60573 | 19257 ft | 439 kts | 174° |
| 2026-05-07 04:12 | 39.02264 | -82.59287 | 19625 ft | 443 kts | 174° |
| 2026-05-07 04:12 | 38.99342 | -82.58016 | 19980 ft | 441 kts | 175° |
| 2026-05-07 04:12 | 38.96435 | -82.56984 | 20334 ft | 434 kts | 177° |
| 2026-05-07 04:13 | 38.93477 | -82.55952 | 20694 ft | 441 kts | 178° |
| 2026-05-07 04:13 | 38.90501 | -82.54932 | 21048 ft | 444 kts | 178° |
| 2026-05-07 04:13 | 38.87497 | -82.53882 | 21430 ft | 441 kts | 178° |
| 2026-05-07 04:13 | 38.84518 | -82.52838 | 21799 ft | 444 kts | 178° |
| 2026-05-07 04:14 | 38.81530 | -82.51792 | 22168 ft | 446 kts | 178° |
| 2026-05-07 04:14 | 38.78515 | -82.50731 | 22531 ft | 448 kts | 178° |
| 2026-05-07 04:14 | 38.75483 | -82.49647 | 22898 ft | 453 kts | 178° |
| 2026-05-07 04:14 | 38.72453 | -82.48564 | 23269 ft | 459 kts | 177° |
| 2026-05-07 04:15 | 38.69353 | -82.47468 | 23631 ft | 458 kts | 178° |
| 2026-05-07 04:15 | 38.66294 | -82.46383 | 24007 ft | 456 kts | 178° |
| 2026-05-07 04:15 | 38.63223 | -82.45280 | 24374 ft | 458 kts | 177° |
| 2026-05-07 04:15 | 38.60133 | -82.44186 | 24762 ft | 463 kts | 178° |
| 2026-05-07 04:16 | 38.57015 | -82.43095 | 25150 ft | 467 kts | 178° |
| 2026-05-07 04:16 | 38.53860 | -82.41972 | 25539 ft | 473 kts | 178° |
| 2026-05-07 04:16 | 38.50702 | -82.40863 | 25916 ft | 471 kts | 178° |
| 2026-05-07 04:16 | 38.47569 | -82.39755 | 26302 ft | 472 kts | 177° |
| 2026-05-07 04:17 | 38.44385 | -82.38641 | 26684 ft | 475 kts | 178° |
| 2026-05-07 04:17 | 38.41153 | -82.37496 | 27072 ft | 477 kts | 177° |
| 2026-05-07 04:17 | 38.37946 | -82.36348 | 27443 ft | 472 kts | 178° |
| 2026-05-07 04:17 | 38.34816 | -82.35224 | 27836 ft | 470 kts | 178° |
| 2026-05-07 04:18 | 38.31621 | -82.34072 | 28034 ft | 469 kts | 178° |
| 2026-05-07 04:18 | 38.25310 | -82.31795 | 28032 ft | 468 kts | 178° |
| 2026-05-07 04:19 | 38.19047 | -82.29538 | 28042 ft | 469 kts | 178° |
| 2026-05-07 04:19 | 38.12683 | -82.27228 | 28029 ft | 466 kts | 178° |
| 2026-05-07 04:20 | 38.06400 | -82.24951 | 28029 ft | 470 kts | 178° |
| 2026-05-07 04:20 | 38.00104 | -82.22682 | 28033 ft | 469 kts | 178° |
| 2026-05-07 04:21 | 37.90678 | -82.19308 | 28023 ft | 471 kts | 178° |
| 2026-05-07 04:21 | 37.84287 | -82.17034 | 28034 ft | 474 kts | 178° |
| 2026-05-07 04:22 | 37.77976 | -82.14832 | 28033 ft | 468 kts | 179° |
| 2026-05-07 04:22 | 37.71617 | -82.12766 | 28019 ft | 469 kts | 179° |
| 2026-05-07 04:23 | 37.65260 | -82.10699 | 28018 ft | 471 kts | 179° |
| 2026-05-07 04:23 | 37.58874 | -82.08637 | 28024 ft | 474 kts | 179° |
| 2026-05-07 04:24 | 37.52425 | -82.06556 | 28025 ft | 471 kts | 179° |
| 2026-05-07 04:24 | 37.46087 | -82.04494 | 28018 ft | 469 kts | 179° |
| 2026-05-07 04:25 | 37.39676 | -82.02422 | 28032 ft | 472 kts | 179° |
| 2026-05-07 04:25 | 37.33305 | -82.00359 | 28017 ft | 471 kts | 179° |
| 2026-05-07 04:26 | 37.26911 | -81.98289 | 28008 ft | 470 kts | 179° |
| 2026-05-07 04:26 | 37.20520 | -81.96226 | 28013 ft | 476 kts | 179° |
| 2026-05-07 04:27 | 37.14108 | -81.94167 | 28021 ft | 472 kts | 179° |
| 2026-05-07 04:27 | 37.07677 | -81.92104 | 28023 ft | 475 kts | 179° |
| 2026-05-07 04:28 | 37.01331 | -81.90036 | 28024 ft | 469 kts | 179° |
| 2026-05-07 04:28 | 36.95005 | -81.87965 | 28022 ft | 471 kts | 178° |
| 2026-05-07 04:29 | 36.91856 | -81.86661 | 28023 ft | 482 kts | 171° |
| 2026-05-07 04:29 | 36.88746 | -81.84898 | 28027 ft | 494 kts | 165° |
| 2026-05-07 04:29 | 36.85706 | -81.82691 | 28027 ft | 506 kts | 159° |
| 2026-05-07 04:29 | 36.82824 | -81.80098 | 28026 ft | 516 kts | 153° |
| 2026-05-07 04:30 | 36.80062 | -81.77078 | 28030 ft | 531 kts | 147° |
| 2026-05-07 04:30 | 36.77483 | -81.73659 | 28028 ft | 539 kts | 141° |
| 2026-05-07 04:30 | 36.75149 | -81.69923 | 28028 ft | 551 kts | 134° |
| 2026-05-07 04:30 | 36.73267 | -81.65720 | 28035 ft | 573 kts | 121° |
| 2026-05-07 04:31 | 36.72090 | -81.60901 | 28023 ft | 587 kts | 104° |
| 2026-05-07 04:31 | 36.71825 | -81.55786 | 28045 ft | 592 kts | 89° |
| 2026-05-07 04:31 | 36.72487 | -81.50680 | 28054 ft | 597 kts | 73° |
| 2026-05-07 04:31 | 36.73649 | -81.45715 | 28049 ft | 599 kts | 72° |
| 2026-05-07 04:32 | 36.76082 | -81.35702 | 28049 ft | 596 kts | 72° |
| 2026-05-07 04:32 | 36.78499 | -81.25808 | 28035 ft | 595 kts | 73° |
| 2026-05-07 04:33 | 36.80822 | -81.15901 | 28033 ft | 595 kts | 73° |
| 2026-05-07 04:33 | 36.83128 | -81.05936 | 28022 ft | 596 kts | 73° |
| 2026-05-07 04:34 | 36.85455 | -80.95907 | 28028 ft | 594 kts | 73° |
| 2026-05-07 04:34 | 36.87750 | -80.85962 | 28028 ft | 594 kts | 72° |
| 2026-05-07 04:35 | 36.90081 | -80.76054 | 28014 ft | 578 kts | 72° |
| 2026-05-07 04:35 | 36.91157 | -80.71320 | 27985 ft | 555 kts | 73° |
| 2026-05-07 04:35 | 36.92235 | -80.66782 | 27884 ft | 535 kts | 73° |
| 2026-05-07 04:36 | 36.93267 | -80.62348 | 27773 ft | 516 kts | 72° |
| 2026-05-07 04:36 | 36.94240 | -80.58111 | 27667 ft | 499 kts | 73° |
| 2026-05-07 04:36 | 36.95198 | -80.53999 | 27551 ft | 483 kts | 72° |
| 2026-05-07 04:36 | 36.96125 | -80.49985 | 27462 ft | 478 kts | 73° |
| 2026-05-07 04:37 | 36.97063 | -80.45953 | 27394 ft | 481 kts | 72° |
| 2026-05-07 04:37 | 36.98046 | -80.41912 | 27319 ft | 485 kts | 72° |
| 2026-05-07 04:37 | 36.98985 | -80.37856 | 27159 ft | 485 kts | 73° |
| 2026-05-07 04:37 | 36.99951 | -80.33807 | 26837 ft | 482 kts | 73° |
| 2026-05-07 04:38 | 37.00907 | -80.29827 | 26509 ft | 473 kts | 73° |
| 2026-05-07 04:38 | 37.01828 | -80.25897 | 26163 ft | 464 kts | 73° |
| 2026-05-07 04:38 | 37.02747 | -80.22066 | 25803 ft | 455 kts | 76° |
| 2026-05-07 04:38 | 37.03353 | -80.18222 | 25455 ft | 445 kts | 85° |
| 2026-05-07 04:39 | 37.03594 | -80.14426 | 25094 ft | 435 kts | 92° |
| 2026-05-07 04:39 | 37.03495 | -80.10671 | 24744 ft | 423 kts | 101° |
| 2026-05-07 04:39 | 37.03072 | -80.07093 | 24338 ft | 415 kts | 109° |
| 2026-05-07 04:39 | 37.02396 | -80.03545 | 23997 ft | 417 kts | 110° |
| 2026-05-07 04:40 | 37.01695 | -79.99979 | 23669 ft | 417 kts | 112° |
| 2026-05-07 04:40 | 37.00737 | -79.96593 | 23346 ft | 405 kts | 122° |
| 2026-05-07 04:40 | 36.99579 | -79.93362 | 23015 ft | 403 kts | 122° |
| 2026-05-07 04:40 | 36.98425 | -79.90166 | 22677 ft | 398 kts | 122° |
| 2026-05-07 04:41 | 36.97275 | -79.87027 | 22351 ft | 397 kts | 122° |
| 2026-05-07 04:41 | 36.96131 | -79.83884 | 22031 ft | 395 kts | 122° |
| 2026-05-07 04:41 | 36.94992 | -79.80778 | 21740 ft | 397 kts | 122° |
| 2026-05-07 04:41 | 36.93830 | -79.77603 | 21431 ft | 395 kts | 122° |
| 2026-05-07 04:42 | 36.92728 | -79.74474 | 21102 ft | 398 kts | 119° |
| 2026-05-07 04:42 | 36.91686 | -79.71278 | 20774 ft | 393 kts | 119° |
| 2026-05-07 04:42 | 36.90619 | -79.68121 | 20442 ft | 393 kts | 119° |
| 2026-05-07 04:42 | 36.89564 | -79.64989 | 20117 ft | 392 kts | 119° |
| 2026-05-07 04:43 | 36.88490 | -79.61819 | 19787 ft | 390 kts | 119° |
| 2026-05-07 04:43 | 36.87440 | -79.58717 | 19463 ft | 389 kts | 119° |
| 2026-05-07 04:43 | 36.86372 | -79.55601 | 19135 ft | 387 kts | 119° |
| 2026-05-07 04:43 | 36.85331 | -79.52501 | 18811 ft | 386 kts | 119° |
| 2026-05-07 04:44 | 36.84277 | -79.49406 | 18483 ft | 385 kts | 119° |
| 2026-05-07 04:44 | 36.83205 | -79.46333 | 18165 ft | 386 kts | 119° |
| 2026-05-07 04:44 | 36.82136 | -79.43247 | 17846 ft | 382 kts | 118° |
| 2026-05-07 04:44 | 36.81071 | -79.40219 | 17559 ft | 379 kts | 119° |
| 2026-05-07 04:45 | 36.80009 | -79.37226 | 17145 ft | 378 kts | 118° |
| 2026-05-07 04:45 | 36.78944 | -79.34187 | 16725 ft | 375 kts | 119° |
| 2026-05-07 04:45 | 36.77902 | -79.31229 | 16285 ft | 373 kts | 120° |
| 2026-05-07 04:45 | 36.76871 | -79.28275 | 15861 ft | 370 kts | 119° |
| 2026-05-07 04:46 | 36.75825 | -79.25352 | 15439 ft | 366 kts | 119° |
| 2026-05-07 04:46 | 36.74783 | -79.22440 | 15014 ft | 363 kts | 119° |
| 2026-05-07 04:46 | 36.73773 | -79.19611 | 14591 ft | 360 kts | 119° |
| 2026-05-07 04:46 | 36.72750 | -79.16758 | 14176 ft | 356 kts | 119° |
| 2026-05-07 04:47 | 36.71744 | -79.13967 | 13759 ft | 353 kts | 119° |
| 2026-05-07 04:47 | 36.70735 | -79.11189 | 13338 ft | 349 kts | 119° |
| 2026-05-07 04:47 | 36.69734 | -79.08424 | 12915 ft | 346 kts | 119° |
| 2026-05-07 04:47 | 36.68655 | -79.05788 | 12492 ft | 339 kts | 123° |
| 2026-05-07 04:48 | 36.67469 | -79.03281 | 12081 ft | 330 kts | 134° |
| 2026-05-07 04:48 | 36.65824 | -79.01383 | 11675 ft | 316 kts | 154° |
| 2026-05-07 04:48 | 36.63911 | -79.00201 | 11304 ft | 305 kts | 162° |
| 2026-05-07 04:48 | 36.61907 | -78.99414 | 10929 ft | 292 kts | 175° |
| 2026-05-07 04:49 | 36.59928 | -78.98942 | 10617 ft | 287 kts | 175° |
| 2026-05-07 04:49 | 36.58000 | -78.98482 | 10419 ft | 277 kts | 175° |
| 2026-05-07 04:49 | 36.56125 | -78.98033 | 10284 ft | 266 kts | 175° |
| 2026-05-07 04:49 | 36.54313 | -78.97607 | 10142 ft | 264 kts | 175° |
| 2026-05-07 04:50 | 36.52512 | -78.97189 | 10008 ft | 261 kts | 175° |
| 2026-05-07 04:50 | 36.50735 | -78.96767 | 9851 ft | 251 kts | 175° |
| 2026-05-07 04:50 | 36.49048 | -78.96367 | 9688 ft | 242 kts | 175° |
| 2026-05-07 04:50 | 36.47396 | -78.95964 | 9530 ft | 239 kts | 175° |
| 2026-05-07 04:51 | 36.45752 | -78.95563 | 9406 ft | 240 kts | 175° |
| 2026-05-07 04:51 | 36.44078 | -78.95165 | 9268 ft | 242 kts | 174° |
| 2026-05-07 04:51 | 36.42432 | -78.94713 | 9080 ft | 247 kts | 163° |
| 2026-05-07 04:51 | 36.40852 | -78.93785 | 8923 ft | 249 kts | 159° |
| 2026-05-07 04:52 | 36.39288 | -78.92800 | 8729 ft | 251 kts | 153° |
| 2026-05-07 04:52 | 36.37982 | -78.91306 | 8583 ft | 258 kts | 136° |
| 2026-05-07 04:52 | 36.36779 | -78.89629 | 8404 ft | 257 kts | 137° |
| 2026-05-07 04:52 | 36.35569 | -78.87961 | 8217 ft | 257 kts | 137° |
| 2026-05-07 04:53 | 36.34382 | -78.86315 | 8037 ft | 257 kts | 137° |
| 2026-05-07 04:53 | 36.33173 | -78.84660 | 7851 ft | 256 kts | 139° |
| 2026-05-07 04:53 | 36.31957 | -78.83088 | 7673 ft | 254 kts | 139° |
| 2026-05-07 04:53 | 36.30716 | -78.81491 | 7485 ft | 250 kts | 139° |
| 2026-05-07 04:54 | 36.29535 | -78.79981 | 7346 ft | 239 kts | 140° |
| 2026-05-07 04:54 | 36.28385 | -78.78528 | 7147 ft | 234 kts | 140° |
| 2026-05-07 04:54 | 36.27261 | -78.77101 | 6949 ft | 226 kts | 141° |
| 2026-05-07 04:54 | 36.26132 | -78.75709 | 6810 ft | 228 kts | 141° |
| 2026-05-07 04:55 | 36.24995 | -78.74324 | 6706 ft | 228 kts | 141° |
| 2026-05-07 04:55 | 36.23850 | -78.72931 | 6603 ft | 229 kts | 141° |
| 2026-05-07 04:55 | 36.22707 | -78.71588 | 6488 ft | 227 kts | 144° |
| 2026-05-07 04:55 | 36.21481 | -78.70288 | 6408 ft | 237 kts | 144° |
| 2026-05-07 04:56 | 36.20216 | -78.68948 | 6294 ft | 238 kts | 144° |
| 2026-05-07 04:56 | 36.18940 | -78.67639 | 6157 ft | 235 kts | 148° |
| 2026-05-07 04:56 | 36.17652 | -78.66397 | 6022 ft | 234 kts | 147° |
| 2026-05-07 04:56 | 36.16363 | -78.65157 | 5865 ft | 233 kts | 148° |
| 2026-05-07 04:57 | 36.15085 | -78.63928 | 5710 ft | 231 kts | 150° |
| 2026-05-07 04:57 | 36.13771 | -78.62806 | 5522 ft | 229 kts | 152° |
| 2026-05-07 04:57 | 36.12456 | -78.61691 | 5320 ft | 223 kts | 152° |
| 2026-05-07 04:57 | 36.11180 | -78.60587 | 5113 ft | 220 kts | 151° |
| 2026-05-07 04:58 | 36.09924 | -78.59516 | 4927 ft | 220 kts | 152° |
| 2026-05-07 04:58 | 36.08602 | -78.58553 | 4627 ft | 214 kts | 168° |
| 2026-05-07 04:58 | 36.07204 | -78.58253 | 4351 ft | 198 kts | 188° |
| 2026-05-07 04:58 | 36.05888 | -78.58525 | 4089 ft | 185 kts | 201° |
| 2026-05-07 04:59 | 36.04755 | -78.59123 | 3868 ft | 171 kts | 220° |
| 2026-05-07 04:59 | 36.03865 | -78.60034 | 3697 ft | 163 kts | 224° |
| 2026-05-07 04:59 | 36.03019 | -78.61002 | 3456 ft | 165 kts | 228° |
| 2026-05-07 04:59 | 36.02192 | -78.62003 | 3218 ft | 167 kts | 227° |
| 2026-05-07 05:00 | 36.01378 | -78.63002 | 3057 ft | 165 kts | 228° |
| 2026-05-07 05:00 | 36.00560 | -78.64017 | 2911 ft | 166 kts | 228° |
| 2026-05-07 05:00 | 35.99739 | -78.65039 | 2765 ft | 166 kts | 228° |
| 2026-05-07 05:00 | 35.98931 | -78.65984 | 2570 ft | 149 kts | 226° |
| 2026-05-07 05:01 | 35.98174 | -78.66878 | 2442 ft | 152 kts | 226° |
| 2026-05-07 05:01 | 35.97436 | -78.67814 | 2164 ft | 154 kts | 230° |
| 2026-05-07 05:01 | 35.96693 | -78.68790 | 1977 ft | 156 kts | 229° |
| 2026-05-07 05:01 | 35.95921 | -78.69740 | 1874 ft | 160 kts | 226° |
| 2026-05-07 05:02 | 35.95124 | -78.70660 | 1585 ft | 164 kts | 227° |
| 2026-05-07 05:02 | 35.94246 | -78.71773 | 1441 ft | 193 kts | 227° |
| 2026-05-07 05:02 | 35.93299 | -78.72967 | 1303 ft | 190 kts | 226° |
| 2026-05-07 05:02 | 35.92444 | -78.73996 | 1197 ft | 157 kts | 227° |
| 2026-05-07 05:03 | 35.91693 | -78.74946 | 1034 ft | 152 kts | 226° |
| 2026-05-07 05:03 | 35.90939 | -78.75881 | 832 ft | 154 kts | 225° |
| 2026-05-07 05:03 | 35.90173 | -78.76819 | 671 ft | 157 kts | 226° |
| 2026-05-07 05:03 | 35.89400 | -78.77782 | 476 ft | 150 kts | 226° |
| 2026-05-07 05:04 | 35.88696 | -78.78652 | 395 ft | 128 kts | 226° |
| 2026-05-07 05:04 | 35.88205 | -78.79264 | 383 ft | 71 kts | 224° |
| 2026-05-07 05:04 | 35.88038 | -78.79453 | 378 ft | 18 kts | 212° |
| 2026-05-07 05:04 | 35.87931 | -78.79457 | 380 ft | 12 kts | 139° |
| 2026-05-07 05:05 | 35.87892 | -78.79394 | 384 ft | 6 kts | 119° |
| 2026-05-07 05:05 | 35.87877 | -78.79352 | 387 ft | 4 kts | 120° |
| 2026-05-07 05:05 | 35.87860 | -78.79327 | 389 ft | 3 kts | 133° |
| 2026-05-07 05:05 | 35.87845 | -78.79309 | 390 ft | 1 kts | 135° |
| 2026-05-07 05:06 | 35.87843 | -78.79307 | 390 ft | 0 kts | 134° |
| 2026-05-07 05:06 | 35.87844 | -78.79308 | 390 ft | 0 kts | 134° |